sensor_id;sensor_type;location;lat;lon;timestamp;P1;durP1;ratioP1;P2;durP2;ratioP2
15480;SDS011;7842;50.904;6.670;2023-05-16T00:01:49;10.90;;;8.77;;
15480;SDS011;7842;50.904;6.670;2023-05-16T00:04:15;10.87;;;8.10;;
15480;SDS011;7842;50.904;6.670;2023-05-16T00:06:41;12.00;;;8.43;;
15480;SDS011;7842;50.904;6.670;2023-05-16T00:09:07;10.80;;;8.47;;
15480;SDS011;7842;50.904;6.670;2023-05-16T00:11:33;11.30;;;7.83;;
15480;SDS011;7842;50.904;6.670;2023-05-16T00:13:58;10.77;;;7.73;;
15480;SDS011;7842;50.904;6.670;2023-05-16T00:16:25;10.35;;;7.53;;
15480;SDS011;7842;50.904;6.670;2023-05-16T00:18:53;10.05;;;7.32;;
15480;SDS011;7842;50.904;6.670;2023-05-16T00:21:21;7.85;;;6.18;;
15480;SDS011;7842;50.904;6.670;2023-05-16T00:23:47;7.65;;;5.80;;
15480;SDS011;7842;50.904;6.670;2023-05-16T00:26:13;7.33;;;6.20;;
15480;SDS011;7842;50.904;6.670;2023-05-16T00:28:38;6.47;;;5.87;;
15480;SDS011;7842;50.904;6.670;2023-05-16T00:31:04;7.05;;;6.32;;
15480;SDS011;7842;50.904;6.670;2023-05-16T00:33:30;8.10;;;5.60;;
15480;SDS011;7842;50.904;6.670;2023-05-16T00:35:56;7.55;;;5.20;;
15480;SDS011;7842;50.904;6.670;2023-05-16T00:38:23;6.87;;;5.23;;
15480;SDS011;7842;50.904;6.670;2023-05-16T00:40:50;5.05;;;4.53;;
15480;SDS011;7842;50.904;6.670;2023-05-16T00:43:16;4.75;;;4.20;;
15480;SDS011;7842;50.904;6.670;2023-05-16T00:45:41;5.97;;;4.20;;
15480;SDS011;7842;50.904;6.670;2023-05-16T00:48:07;6.07;;;4.03;;
15480;SDS011;7842;50.904;6.670;2023-05-16T00:50:33;4.40;;;3.43;;
15480;SDS011;7842;50.904;6.670;2023-05-16T00:53:00;5.00;;;3.40;;
15480;SDS011;7842;50.904;6.670;2023-05-16T00:55:26;3.67;;;2.80;;
15480;SDS011;7842;50.904;6.670;2023-05-16T00:57:51;3.80;;;3.00;;
15480;SDS011;7842;50.904;6.670;2023-05-16T01:00:17;3.45;;;2.65;;
15480;SDS011;7842;50.904;6.670;2023-05-16T01:02:44;2.67;;;2.40;;
15480;SDS011;7842;50.904;6.670;2023-05-16T01:05:11;3.17;;;2.50;;
15480;SDS011;7842;50.904;6.670;2023-05-16T01:07:37;4.25;;;2.47;;
15480;SDS011;7842;50.904;6.670;2023-05-16T01:10:03;3.40;;;2.42;;
15480;SDS011;7842;50.904;6.670;2023-05-16T01:15:09;3.22;;;2.80;;
15480;SDS011;7842;50.904;6.670;2023-05-16T01:25:45;4.95;;;3.13;;
15480;SDS011;7842;50.904;6.670;2023-05-16T01:28:12;5.60;;;3.40;;
15480;SDS011;7842;50.904;6.670;2023-05-16T01:30:40;5.10;;;3.50;;
15480;SDS011;7842;50.904;6.670;2023-05-16T01:33:06;4.88;;;3.20;;
15480;SDS011;7842;50.904;6.670;2023-05-16T01:35:32;3.40;;;3.00;;
15480;SDS011;7842;50.904;6.670;2023-05-16T01:40:38;4.43;;;3.00;;
15480;SDS011;7842;50.904;6.670;2023-05-16T01:43:16;5.35;;;3.15;;
15480;SDS011;7842;50.904;6.670;2023-05-16T01:45:50;4.80;;;3.30;;
15480;SDS011;7842;50.904;6.670;2023-05-16T01:48:23;6.43;;;3.35;;
15480;SDS011;7842;50.904;6.670;2023-05-16T01:50:54;4.32;;;3.22;;
15480;SDS011;7842;50.904;6.670;2023-05-16T01:53:25;5.97;;;3.38;;
15480;SDS011;7842;50.904;6.670;2023-05-16T01:55:51;5.23;;;3.23;;
15480;SDS011;7842;50.904;6.670;2023-05-16T01:58:22;5.82;;;3.30;;
15480;SDS011;7842;50.904;6.670;2023-05-16T02:00:51;6.35;;;3.50;;
15480;SDS011;7842;50.904;6.670;2023-05-16T02:03:17;7.35;;;4.05;;
15480;SDS011;7842;50.904;6.670;2023-05-16T02:05:43;6.65;;;3.83;;
15480;SDS011;7842;50.904;6.670;2023-05-16T02:08:09;7.13;;;3.65;;
15480;SDS011;7842;50.904;6.670;2023-05-16T02:10:35;7.20;;;3.80;;
15480;SDS011;7842;50.904;6.670;2023-05-16T02:13:03;7.95;;;3.90;;
15480;SDS011;7842;50.904;6.670;2023-05-16T02:15:30;7.60;;;4.00;;
15480;SDS011;7842;50.904;6.670;2023-05-16T02:17:55;8.57;;;4.67;;
15480;SDS011;7842;50.904;6.670;2023-05-16T02:20:22;7.13;;;4.35;;
15480;SDS011;7842;50.904;6.670;2023-05-16T02:22:47;10.27;;;4.57;;
15480;SDS011;7842;50.904;6.670;2023-05-16T02:25:14;9.65;;;4.40;;
15480;SDS011;7842;50.904;6.670;2023-05-16T02:27:40;6.63;;;4.00;;
15480;SDS011;7842;50.904;6.670;2023-05-16T02:30:07;10.83;;;4.73;;
15480;SDS011;7842;50.904;6.670;2023-05-16T02:32:34;9.05;;;4.38;;
15480;SDS011;7842;50.904;6.670;2023-05-16T02:35:00;6.72;;;3.85;;
15480;SDS011;7842;50.904;6.670;2023-05-16T02:37:25;7.38;;;3.85;;
15480;SDS011;7842;50.904;6.670;2023-05-16T02:39:53;9.45;;;4.22;;
15480;SDS011;7842;50.904;6.670;2023-05-16T02:42:19;9.52;;;4.07;;
15480;SDS011;7842;50.904;6.670;2023-05-16T02:44:44;10.65;;;4.93;;
15480;SDS011;7842;50.904;6.670;2023-05-16T02:47:10;7.67;;;4.00;;
15480;SDS011;7842;50.904;6.670;2023-05-16T02:49:36;10.53;;;4.83;;
15480;SDS011;7842;50.904;6.670;2023-05-16T02:52:01;11.05;;;4.93;;
15480;SDS011;7842;50.904;6.670;2023-05-16T02:54:27;11.90;;;4.80;;
15480;SDS011;7842;50.904;6.670;2023-05-16T02:56:53;12.02;;;4.53;;
15480;SDS011;7842;50.904;6.670;2023-05-16T02:59:19;10.25;;;4.32;;
15480;SDS011;7842;50.904;6.670;2023-05-16T03:01:46;10.65;;;4.30;;
15480;SDS011;7842;50.904;6.670;2023-05-16T03:04:12;10.57;;;4.63;;
15480;SDS011;7842;50.904;6.670;2023-05-16T03:06:38;10.80;;;4.50;;
15480;SDS011;7842;50.904;6.670;2023-05-16T03:09:04;9.73;;;4.57;;
15480;SDS011;7842;50.904;6.670;2023-05-16T03:11:31;13.43;;;4.73;;
15480;SDS011;7842;50.904;6.670;2023-05-16T03:13:57;11.13;;;4.80;;
15480;SDS011;7842;50.904;6.670;2023-05-16T03:16:24;11.75;;;4.47;;
15480;SDS011;7842;50.904;6.670;2023-05-16T03:18:49;13.63;;;4.50;;
15480;SDS011;7842;50.904;6.670;2023-05-16T03:21:15;10.25;;;4.60;;
15480;SDS011;7842;50.904;6.670;2023-05-16T03:23:41;8.17;;;4.23;;
15480;SDS011;7842;50.904;6.670;2023-05-16T03:26:07;11.15;;;4.72;;
15480;SDS011;7842;50.904;6.670;2023-05-16T03:28:33;11.02;;;4.70;;
15480;SDS011;7842;50.904;6.670;2023-05-16T03:30:59;10.50;;;4.55;;
15480;SDS011;7842;50.904;6.670;2023-05-16T03:33:25;10.57;;;4.57;;
15480;SDS011;7842;50.904;6.670;2023-05-16T03:35:51;12.10;;;4.30;;
15480;SDS011;7842;50.904;6.670;2023-05-16T03:38:17;9.50;;;4.30;;
15480;SDS011;7842;50.904;6.670;2023-05-16T03:40:43;10.32;;;4.40;;
15480;SDS011;7842;50.904;6.670;2023-05-16T03:43:09;11.90;;;4.55;;
15480;SDS011;7842;50.904;6.670;2023-05-16T03:45:35;15.10;;;4.90;;
15480;SDS011;7842;50.904;6.670;2023-05-16T03:48:01;10.45;;;4.70;;
15480;SDS011;7842;50.904;6.670;2023-05-16T03:50:27;8.23;;;4.30;;
15480;SDS011;7842;50.904;6.670;2023-05-16T03:52:53;12.98;;;4.72;;
15480;SDS011;7842;50.904;6.670;2023-05-16T03:55:19;11.48;;;4.47;;
15480;SDS011;7842;50.904;6.670;2023-05-16T03:57:45;9.77;;;4.10;;
15480;SDS011;7842;50.904;6.670;2023-05-16T04:00:13;14.23;;;4.57;;
15480;SDS011;7842;50.904;6.670;2023-05-16T04:02:40;12.82;;;4.47;;
15480;SDS011;7842;50.904;6.670;2023-05-16T04:05:07;13.02;;;4.68;;
15480;SDS011;7842;50.904;6.670;2023-05-16T04:07:33;9.25;;;4.47;;
15480;SDS011;7842;50.904;6.670;2023-05-16T04:09:59;11.30;;;4.10;;
15480;SDS011;7842;50.904;6.670;2023-05-16T04:12:25;11.23;;;4.10;;
15480;SDS011;7842;50.904;6.670;2023-05-16T04:14:51;11.00;;;3.77;;
15480;SDS011;7842;50.904;6.670;2023-05-16T04:17:16;12.90;;;4.13;;
15480;SDS011;7842;50.904;6.670;2023-05-16T04:19:42;11.37;;;4.30;;
15480;SDS011;7842;50.904;6.670;2023-05-16T04:22:09;13.23;;;4.30;;
15480;SDS011;7842;50.904;6.670;2023-05-16T04:24:35;10.40;;;4.00;;
15480;SDS011;7842;50.904;6.670;2023-05-16T04:27:01;11.32;;;3.70;;
15480;SDS011;7842;50.904;6.670;2023-05-16T04:29:28;13.43;;;3.97;;
15480;SDS011;7842;50.904;6.670;2023-05-16T04:31:56;9.50;;;3.47;;
15480;SDS011;7842;50.904;6.670;2023-05-16T04:34:22;10.95;;;3.17;;
15480;SDS011;7842;50.904;6.670;2023-05-16T04:36:51;11.20;;;3.30;;
15480;SDS011;7842;50.904;6.670;2023-05-16T04:39:21;10.18;;;3.47;;
15480;SDS011;7842;50.904;6.670;2023-05-16T04:41:47;11.73;;;3.28;;
15480;SDS011;7842;50.904;6.670;2023-05-16T04:44:15;11.43;;;3.42;;
15480;SDS011;7842;50.904;6.670;2023-05-16T04:46:41;11.02;;;3.50;;
15480;SDS011;7842;50.904;6.670;2023-05-16T04:49:07;10.48;;;3.50;;
15480;SDS011;7842;50.904;6.670;2023-05-16T04:51:35;12.52;;;3.50;;
15480;SDS011;7842;50.904;6.670;2023-05-16T04:54:01;9.07;;;3.70;;
15480;SDS011;7842;50.904;6.670;2023-05-16T04:56:27;8.70;;;2.80;;
15480;SDS011;7842;50.904;6.670;2023-05-16T04:58:53;10.32;;;3.00;;
15480;SDS011;7842;50.904;6.670;2023-05-16T05:01:19;10.07;;;3.07;;
15480;SDS011;7842;50.904;6.670;2023-05-16T05:03:45;10.00;;;2.75;;
15480;SDS011;7842;50.904;6.670;2023-05-16T05:06:11;8.52;;;2.67;;
15480;SDS011;7842;50.904;6.670;2023-05-16T05:08:37;9.97;;;2.90;;
15480;SDS011;7842;50.904;6.670;2023-05-16T05:11:03;10.02;;;3.08;;
15480;SDS011;7842;50.904;6.670;2023-05-16T05:13:29;9.00;;;2.75;;
15480;SDS011;7842;50.904;6.670;2023-05-16T05:15:55;9.70;;;2.80;;
15480;SDS011;7842;50.904;6.670;2023-05-16T05:18:26;11.13;;;2.65;;
15480;SDS011;7842;50.904;6.670;2023-05-16T05:20:51;10.73;;;2.40;;
15480;SDS011;7842;50.904;6.670;2023-05-16T05:23:17;9.02;;;2.50;;
15480;SDS011;7842;50.904;6.670;2023-05-16T05:25:44;8.85;;;2.35;;
15480;SDS011;7842;50.904;6.670;2023-05-16T05:28:10;9.63;;;2.63;;
15480;SDS011;7842;50.904;6.670;2023-05-16T05:30:36;9.10;;;2.53;;
15480;SDS011;7842;50.904;6.670;2023-05-16T05:33:02;7.57;;;2.20;;
15480;SDS011;7842;50.904;6.670;2023-05-16T05:35:28;13.77;;;2.90;;
15480;SDS011;7842;50.904;6.670;2023-05-16T05:37:54;10.07;;;3.13;;
15480;SDS011;7842;50.904;6.670;2023-05-16T05:40:20;7.13;;;2.30;;
15480;SDS011;7842;50.904;6.670;2023-05-16T05:42:46;8.32;;;2.80;;
15480;SDS011;7842;50.904;6.670;2023-05-16T05:45:12;10.43;;;2.75;;
15480;SDS011;7842;50.904;6.670;2023-05-16T05:47:38;10.18;;;2.60;;
15480;SDS011;7842;50.904;6.670;2023-05-16T05:50:04;8.73;;;2.70;;
15480;SDS011;7842;50.904;6.670;2023-05-16T05:52:30;8.15;;;2.50;;
15480;SDS011;7842;50.904;6.670;2023-05-16T05:54:56;9.00;;;2.72;;
15480;SDS011;7842;50.904;6.670;2023-05-16T05:57:23;9.88;;;2.65;;
15480;SDS011;7842;50.904;6.670;2023-05-16T05:59:49;8.38;;;2.28;;
15480;SDS011;7842;50.904;6.670;2023-05-16T06:02:16;8.18;;;3.05;;
15480;SDS011;7842;50.904;6.670;2023-05-16T06:04:42;10.45;;;2.80;;
15480;SDS011;7842;50.904;6.670;2023-05-16T06:07:09;8.40;;;2.58;;
15480;SDS011;7842;50.904;6.670;2023-05-16T06:09:35;9.02;;;2.50;;
15480;SDS011;7842;50.904;6.670;2023-05-16T06:12:01;8.90;;;2.50;;
15480;SDS011;7842;50.904;6.670;2023-05-16T06:14:28;7.63;;;2.58;;
15480;SDS011;7842;50.904;6.670;2023-05-16T06:16:54;9.93;;;2.65;;
15480;SDS011;7842;50.904;6.670;2023-05-16T06:19:20;9.95;;;2.58;;
15480;SDS011;7842;50.904;6.670;2023-05-16T06:21:46;7.78;;;2.75;;
15480;SDS011;7842;50.904;6.670;2023-05-16T06:24:12;10.85;;;2.92;;
15480;SDS011;7842;50.904;6.670;2023-05-16T06:26:38;9.20;;;2.75;;
15480;SDS011;7842;50.904;6.670;2023-05-16T06:29:04;9.95;;;2.80;;
15480;SDS011;7842;50.904;6.670;2023-05-16T06:31:30;7.50;;;3.00;;
15480;SDS011;7842;50.904;6.670;2023-05-16T06:33:56;11.75;;;3.28;;
15480;SDS011;7842;50.904;6.670;2023-05-16T06:36:22;10.13;;;3.10;;
15480;SDS011;7842;50.904;6.670;2023-05-16T06:38:48;7.13;;;2.70;;
15480;SDS011;7842;50.904;6.670;2023-05-16T06:41:14;8.25;;;2.95;;
15480;SDS011;7842;50.904;6.670;2023-05-16T06:43:40;9.52;;;3.00;;
15480;SDS011;7842;50.904;6.670;2023-05-16T06:46:06;11.13;;;2.70;;
15480;SDS011;7842;50.904;6.670;2023-05-16T06:48:32;9.85;;;3.55;;
15480;SDS011;7842;50.904;6.670;2023-05-16T06:50:58;9.07;;;3.08;;
15480;SDS011;7842;50.904;6.670;2023-05-16T06:53:24;9.57;;;2.60;;
15480;SDS011;7842;50.904;6.670;2023-05-16T06:55:50;9.57;;;3.13;;
15480;SDS011;7842;50.904;6.670;2023-05-16T06:58:16;7.60;;;2.78;;
15480;SDS011;7842;50.904;6.670;2023-05-16T07:00:42;8.93;;;2.80;;
15480;SDS011;7842;50.904;6.670;2023-05-16T07:03:08;8.38;;;2.72;;
15480;SDS011;7842;50.904;6.670;2023-05-16T07:05:34;6.55;;;2.63;;
15480;SDS011;7842;50.904;6.670;2023-05-16T07:08:00;11.48;;;3.17;;
15480;SDS011;7842;50.904;6.670;2023-05-16T07:10:26;8.80;;;3.00;;
15480;SDS011;7842;50.904;6.670;2023-05-16T07:12:52;9.02;;;2.95;;
15480;SDS011;7842;50.904;6.670;2023-05-16T07:15:19;9.55;;;3.10;;
15480;SDS011;7842;50.904;6.670;2023-05-16T07:17:47;10.13;;;3.22;;
15480;SDS011;7842;50.904;6.670;2023-05-16T07:20:14;9.98;;;3.60;;
15480;SDS011;7842;50.904;6.670;2023-05-16T07:22:40;9.40;;;2.90;;
15480;SDS011;7842;50.904;6.670;2023-05-16T07:25:06;8.85;;;2.90;;
15480;SDS011;7842;50.904;6.670;2023-05-16T07:27:36;7.23;;;2.77;;
15480;SDS011;7842;50.904;6.670;2023-05-16T07:30:05;9.03;;;2.70;;
15480;SDS011;7842;50.904;6.670;2023-05-16T07:32:33;6.87;;;2.57;;
15480;SDS011;7842;50.904;6.670;2023-05-16T07:34:58;5.97;;;2.60;;
15480;SDS011;7842;50.904;6.670;2023-05-16T07:37:26;8.00;;;2.47;;
15480;SDS011;7842;50.904;6.670;2023-05-16T07:39:52;7.33;;;2.30;;
15480;SDS011;7842;50.904;6.670;2023-05-16T07:42:17;9.27;;;2.80;;
15480;SDS011;7842;50.904;6.670;2023-05-16T07:44:43;10.35;;;3.00;;
15480;SDS011;7842;50.904;6.670;2023-05-16T07:47:09;8.35;;;2.97;;
15480;SDS011;7842;50.904;6.670;2023-05-16T07:49:34;8.13;;;3.13;;
15480;SDS011;7842;50.904;6.670;2023-05-16T07:52:00;9.45;;;3.05;;
15480;SDS011;7842;50.904;6.670;2023-05-16T07:54:26;8.03;;;2.60;;
15480;SDS011;7842;50.904;6.670;2023-05-16T07:56:52;6.57;;;2.60;;
15480;SDS011;7842;50.904;6.670;2023-05-16T07:59:18;7.82;;;2.63;;
15480;SDS011;7842;50.904;6.670;2023-05-16T08:01:44;7.55;;;2.58;;
15480;SDS011;7842;50.904;6.670;2023-05-16T08:04:10;7.72;;;2.50;;
15480;SDS011;7842;50.904;6.670;2023-05-16T08:06:36;8.10;;;2.27;;
15480;SDS011;7842;50.904;6.670;2023-05-16T08:09:02;7.50;;;2.22;;
15480;SDS011;7842;50.904;6.670;2023-05-16T08:11:27;7.90;;;2.10;;
15480;SDS011;7842;50.904;6.670;2023-05-16T08:13:53;8.32;;;2.00;;
15480;SDS011;7842;50.904;6.670;2023-05-16T08:16:19;6.63;;;2.67;;
15480;SDS011;7842;50.904;6.670;2023-05-16T08:18:45;5.53;;;2.60;;
15480;SDS011;7842;50.904;6.670;2023-05-16T08:21:11;6.68;;;2.28;;
15480;SDS011;7842;50.904;6.670;2023-05-16T08:23:38;7.00;;;2.58;;
15480;SDS011;7842;50.904;6.670;2023-05-16T08:26:07;5.93;;;2.40;;
15480;SDS011;7842;50.904;6.670;2023-05-16T08:28:33;7.57;;;2.60;;
15480;SDS011;7842;50.904;6.670;2023-05-16T08:30:58;6.25;;;2.50;;
15480;SDS011;7842;50.904;6.670;2023-05-16T08:33:24;6.63;;;2.33;;
15480;SDS011;7842;50.904;6.670;2023-05-16T08:35:50;8.32;;;2.17;;
15480;SDS011;7842;50.904;6.670;2023-05-16T08:38:18;6.78;;;2.67;;
15480;SDS011;7842;50.904;6.670;2023-05-16T08:40:44;7.80;;;2.53;;
15480;SDS011;7842;50.904;6.670;2023-05-16T08:43:10;5.13;;;2.00;;
15480;SDS011;7842;50.904;6.670;2023-05-16T08:45:36;5.53;;;1.90;;
15480;SDS011;7842;50.904;6.670;2023-05-16T08:48:04;4.38;;;1.73;;
15480;SDS011;7842;50.904;6.670;2023-05-16T08:50:30;3.97;;;1.65;;
15480;SDS011;7842;50.904;6.670;2023-05-16T08:52:56;4.25;;;1.80;;
15480;SDS011;7842;50.904;6.670;2023-05-16T08:55:23;3.38;;;1.70;;
15480;SDS011;7842;50.904;6.670;2023-05-16T08:57:50;5.72;;;1.92;;
15480;SDS011;7842;50.904;6.670;2023-05-16T09:00:16;5.95;;;2.20;;
15480;SDS011;7842;50.904;6.670;2023-05-16T09:02:43;5.45;;;1.90;;
15480;SDS011;7842;50.904;6.670;2023-05-16T09:05:13;4.35;;;1.90;;
15480;SDS011;7842;50.904;6.670;2023-05-16T09:07:40;5.53;;;2.22;;
15480;SDS011;7842;50.904;6.670;2023-05-16T09:10:06;6.70;;;2.33;;
15480;SDS011;7842;50.904;6.670;2023-05-16T09:12:34;6.15;;;1.80;;
15480;SDS011;7842;50.904;6.670;2023-05-16T09:15:01;6.22;;;2.20;;
15480;SDS011;7842;50.904;6.670;2023-05-16T09:17:33;4.82;;;2.00;;
15480;SDS011;7842;50.904;6.670;2023-05-16T09:20:00;5.73;;;2.03;;
15480;SDS011;7842;50.904;6.670;2023-05-16T09:22:32;6.45;;;2.13;;
15480;SDS011;7842;50.904;6.670;2023-05-16T09:24:58;6.63;;;1.90;;
15480;SDS011;7842;50.904;6.670;2023-05-16T09:27:24;6.13;;;1.83;;
15480;SDS011;7842;50.904;6.670;2023-05-16T09:29:50;4.35;;;1.80;;
15480;SDS011;7842;50.904;6.670;2023-05-16T09:32:16;5.35;;;1.80;;
15480;SDS011;7842;50.904;6.670;2023-05-16T09:34:43;6.18;;;1.90;;
15480;SDS011;7842;50.904;6.670;2023-05-16T09:37:10;5.32;;;2.03;;
15480;SDS011;7842;50.904;6.670;2023-05-16T09:39:44;7.22;;;2.17;;
15480;SDS011;7842;50.904;6.670;2023-05-16T09:42:15;6.43;;;1.90;;
15480;SDS011;7842;50.904;6.670;2023-05-16T09:44:48;4.57;;;1.90;;
15480;SDS011;7842;50.904;6.670;2023-05-16T09:47:15;7.13;;;2.10;;
15480;SDS011;7842;50.904;6.670;2023-05-16T09:49:45;6.22;;;1.85;;
15480;SDS011;7842;50.904;6.670;2023-05-16T09:52:15;5.18;;;1.80;;
15480;SDS011;7842;50.904;6.670;2023-05-16T09:54:41;5.43;;;2.00;;
15480;SDS011;7842;50.904;6.670;2023-05-16T09:57:07;5.45;;;2.10;;
15480;SDS011;7842;50.904;6.670;2023-05-16T09:59:34;5.10;;;1.90;;
15480;SDS011;7842;50.904;6.670;2023-05-16T10:02:00;7.53;;;2.30;;
15480;SDS011;7842;50.904;6.670;2023-05-16T10:04:27;6.75;;;2.15;;
15480;SDS011;7842;50.904;6.670;2023-05-16T10:06:56;5.90;;;1.90;;
15480;SDS011;7842;50.904;6.670;2023-05-16T10:09:24;6.18;;;2.08;;
15480;SDS011;7842;50.904;6.670;2023-05-16T10:11:51;5.80;;;2.60;;
15480;SDS011;7842;50.904;6.670;2023-05-16T10:14:17;7.30;;;2.55;;
15480;SDS011;7842;50.904;6.670;2023-05-16T10:16:45;3.35;;;1.75;;
15480;SDS011;7842;50.904;6.670;2023-05-16T10:19:12;6.47;;;2.50;;
15480;SDS011;7842;50.904;6.670;2023-05-16T10:21:41;6.35;;;2.13;;
15480;SDS011;7842;50.904;6.670;2023-05-16T10:24:08;5.47;;;2.00;;
15480;SDS011;7842;50.904;6.670;2023-05-16T10:26:36;5.03;;;1.83;;
15480;SDS011;7842;50.904;6.670;2023-05-16T10:29:02;7.95;;;2.20;;
15480;SDS011;7842;50.904;6.670;2023-05-16T10:31:31;6.63;;;1.90;;
15480;SDS011;7842;50.904;6.670;2023-05-16T10:33:57;5.88;;;1.83;;
15480;SDS011;7842;50.904;6.670;2023-05-16T10:36:24;4.13;;;1.65;;
15480;SDS011;7842;50.904;6.670;2023-05-16T10:38:50;6.38;;;2.03;;
15480;SDS011;7842;50.904;6.670;2023-05-16T10:41:16;5.93;;;1.70;;
15480;SDS011;7842;50.904;6.670;2023-05-16T10:43:43;5.15;;;1.70;;
15480;SDS011;7842;50.904;6.670;2023-05-16T10:46:10;5.20;;;1.80;;
15480;SDS011;7842;50.904;6.670;2023-05-16T10:48:38;5.05;;;1.90;;
15480;SDS011;7842;50.904;6.670;2023-05-16T10:54:04;4.15;;;1.70;;
15480;SDS011;7842;50.904;6.670;2023-05-16T10:56:33;4.35;;;1.63;;
15480;SDS011;7842;50.904;6.670;2023-05-16T10:58:59;3.67;;;1.87;;
15480;SDS011;7842;50.904;6.670;2023-05-16T11:01:27;4.93;;;2.00;;
15480;SDS011;7842;50.904;6.670;2023-05-16T11:14:04;4.88;;;1.52;;
15480;SDS011;7842;50.904;6.670;2023-05-16T11:16:30;2.00;;;1.17;;
15480;SDS011;7842;50.904;6.670;2023-05-16T11:19:06;4.28;;;1.35;;
15480;SDS011;7842;50.904;6.670;2023-05-16T11:24:35;3.90;;;1.67;;
15480;SDS011;7842;50.904;6.670;2023-05-16T11:27:03;3.47;;;1.38;;
15480;SDS011;7842;50.904;6.670;2023-05-16T11:29:30;4.22;;;1.60;;
15480;SDS011;7842;50.904;6.670;2023-05-16T11:32:00;2.92;;;1.23;;
15480;SDS011;7842;50.904;6.670;2023-05-16T11:34:27;4.03;;;1.57;;
15480;SDS011;7842;50.904;6.670;2023-05-16T11:36:54;5.13;;;1.40;;
15480;SDS011;7842;50.904;6.670;2023-05-16T11:39:20;6.30;;;1.55;;
15480;SDS011;7842;50.904;6.670;2023-05-16T11:41:49;5.55;;;1.50;;
15480;SDS011;7842;50.904;6.670;2023-05-16T11:44:15;3.72;;;1.17;;
15480;SDS011;7842;50.904;6.670;2023-05-16T11:46:41;3.23;;;1.60;;
15480;SDS011;7842;50.904;6.670;2023-05-16T11:49:10;3.42;;;1.77;;
15480;SDS011;7842;50.904;6.670;2023-05-16T11:51:40;4.93;;;1.60;;
15480;SDS011;7842;50.904;6.670;2023-05-16T11:54:10;4.65;;;1.40;;
15480;SDS011;7842;50.904;6.670;2023-05-16T11:56:37;3.90;;;1.50;;
15480;SDS011;7842;50.904;6.670;2023-05-16T11:59:03;4.50;;;1.60;;
15480;SDS011;7842;50.904;6.670;2023-05-16T12:01:33;3.45;;;1.58;;
15480;SDS011;7842;50.904;6.670;2023-05-16T12:04:00;4.15;;;1.70;;
15480;SDS011;7842;50.904;6.670;2023-05-16T12:06:26;3.30;;;1.50;;
15480;SDS011;7842;50.904;6.670;2023-05-16T12:08:53;4.15;;;1.90;;
15480;SDS011;7842;50.904;6.670;2023-05-16T12:11:19;5.68;;;1.90;;
15480;SDS011;7842;50.904;6.670;2023-05-16T12:13:47;4.60;;;1.75;;
15480;SDS011;7842;50.904;6.670;2023-05-16T12:16:13;5.00;;;1.50;;
15480;SDS011;7842;50.904;6.670;2023-05-16T12:18:40;4.18;;;1.75;;
15480;SDS011;7842;50.904;6.670;2023-05-16T12:21:06;4.80;;;1.73;;
15480;SDS011;7842;50.904;6.670;2023-05-16T12:23:32;4.07;;;1.77;;
15480;SDS011;7842;50.904;6.670;2023-05-16T12:25:58;4.90;;;2.00;;
15480;SDS011;7842;50.904;6.670;2023-05-16T12:28:32;4.15;;;1.60;;
15480;SDS011;7842;50.904;6.670;2023-05-16T12:30:59;5.38;;;1.90;;
15480;SDS011;7842;50.904;6.670;2023-05-16T12:33:26;4.70;;;1.75;;
15480;SDS011;7842;50.904;6.670;2023-05-16T12:35:52;6.60;;;2.00;;
15480;SDS011;7842;50.904;6.670;2023-05-16T12:38:18;5.38;;;2.00;;
15480;SDS011;7842;50.904;6.670;2023-05-16T12:40:45;3.83;;;2.05;;
15480;SDS011;7842;50.904;6.670;2023-05-16T12:43:29;4.43;;;1.85;;
15480;SDS011;7842;50.904;6.670;2023-05-16T12:45:56;4.22;;;1.85;;
15480;SDS011;7842;50.904;6.670;2023-05-16T12:48:23;5.15;;;1.92;;
15480;SDS011;7842;50.904;6.670;2023-05-16T12:50:49;4.95;;;2.30;;
15480;SDS011;7842;50.904;6.670;2023-05-16T12:53:15;5.50;;;2.15;;
15480;SDS011;7842;50.904;6.670;2023-05-16T12:55:42;4.05;;;2.10;;
15480;SDS011;7842;50.904;6.670;2023-05-16T12:58:09;3.33;;;1.38;;
15480;SDS011;7842;50.904;6.670;2023-05-16T13:00:35;4.30;;;1.70;;
15480;SDS011;7842;50.904;6.670;2023-05-16T13:03:02;5.30;;;1.95;;
15480;SDS011;7842;50.904;6.670;2023-05-16T13:05:28;2.83;;;1.20;;
15480;SDS011;7842;50.904;6.670;2023-05-16T13:07:54;4.60;;;1.60;;
15480;SDS011;7842;50.904;6.670;2023-05-16T13:10:20;3.60;;;1.60;;
15480;SDS011;7842;50.904;6.670;2023-05-16T13:12:46;3.80;;;1.60;;
15480;SDS011;7842;50.904;6.670;2023-05-16T13:15:12;4.38;;;1.70;;
15480;SDS011;7842;50.904;6.670;2023-05-16T13:17:40;5.28;;;1.80;;
15480;SDS011;7842;50.904;6.670;2023-05-16T13:20:06;3.22;;;1.42;;
15480;SDS011;7842;50.904;6.670;2023-05-16T13:22:33;2.95;;;1.70;;
15480;SDS011;7842;50.904;6.670;2023-05-16T13:25:02;3.55;;;1.40;;
15480;SDS011;7842;50.904;6.670;2023-05-16T13:27:28;4.10;;;1.80;;
15480;SDS011;7842;50.904;6.670;2023-05-16T13:29:54;5.25;;;2.00;;
15480;SDS011;7842;50.904;6.670;2023-05-16T13:32:20;5.70;;;2.50;;
15480;SDS011;7842;50.904;6.670;2023-05-16T13:34:46;6.07;;;2.20;;
15480;SDS011;7842;50.904;6.670;2023-05-16T13:37:12;6.05;;;2.38;;
15480;SDS011;7842;50.904;6.670;2023-05-16T13:39:38;3.60;;;1.70;;
15480;SDS011;7842;50.904;6.670;2023-05-16T13:42:05;4.47;;;1.90;;
15480;SDS011;7842;50.904;6.670;2023-05-16T13:44:31;4.70;;;1.88;;
15480;SDS011;7842;50.904;6.670;2023-05-16T13:46:57;4.18;;;1.90;;
15480;SDS011;7842;50.904;6.670;2023-05-16T13:49:23;3.77;;;1.70;;
15480;SDS011;7842;50.904;6.670;2023-05-16T13:51:49;4.00;;;1.67;;
15480;SDS011;7842;50.904;6.670;2023-05-16T13:54:16;3.38;;;1.52;;
15480;SDS011;7842;50.904;6.670;2023-05-16T13:56:42;2.33;;;1.10;;
15480;SDS011;7842;50.904;6.670;2023-05-16T13:59:08;2.90;;;1.30;;
15480;SDS011;7842;50.904;6.670;2023-05-16T14:01:35;3.35;;;1.13;;
15480;SDS011;7842;50.904;6.670;2023-05-16T14:04:01;2.60;;;1.00;;
15480;SDS011;7842;50.904;6.670;2023-05-16T14:06:27;2.10;;;1.00;;
15480;SDS011;7842;50.904;6.670;2023-05-16T14:08:53;2.67;;;1.20;;
15480;SDS011;7842;50.904;6.670;2023-05-16T14:11:19;3.47;;;1.15;;
15480;SDS011;7842;50.904;6.670;2023-05-16T14:13:47;1.70;;;1.00;;
15480;SDS011;7842;50.904;6.670;2023-05-16T14:16:13;2.70;;;1.02;;
15480;SDS011;7842;50.904;6.670;2023-05-16T14:18:39;2.50;;;1.20;;
15480;SDS011;7842;50.904;6.670;2023-05-16T14:21:05;3.20;;;1.05;;
15480;SDS011;7842;50.904;6.670;2023-05-16T14:23:31;2.67;;;1.15;;
15480;SDS011;7842;50.904;6.670;2023-05-16T14:25:57;3.63;;;1.10;;
15480;SDS011;7842;50.904;6.670;2023-05-16T14:28:23;3.83;;;1.30;;
15480;SDS011;7842;50.904;6.670;2023-05-16T14:30:49;2.33;;;1.00;;
15480;SDS011;7842;50.904;6.670;2023-05-16T14:33:15;10.37;;;1.60;;
15480;SDS011;7842;50.904;6.670;2023-05-16T14:35:41;3.10;;;1.08;;
15480;SDS011;7842;50.904;6.670;2023-05-16T14:38:07;2.25;;;1.30;;
15480;SDS011;7842;50.904;6.670;2023-05-16T14:40:34;2.33;;;1.15;;
15480;SDS011;7842;50.904;6.670;2023-05-16T14:43:00;2.30;;;1.30;;
15480;SDS011;7842;50.904;6.670;2023-05-16T14:45:28;4.10;;;1.42;;
15480;SDS011;7842;50.904;6.670;2023-05-16T14:47:54;14.27;;;1.73;;
15480;SDS011;7842;50.904;6.670;2023-05-16T14:50:19;3.50;;;1.33;;
15480;SDS011;7842;50.904;6.670;2023-05-16T14:52:45;3.83;;;1.50;;
15480;SDS011;7842;50.904;6.670;2023-05-16T14:55:11;3.45;;;1.33;;
15480;SDS011;7842;50.904;6.670;2023-05-16T14:57:37;2.95;;;1.42;;
15480;SDS011;7842;50.904;6.670;2023-05-16T15:00:03;2.92;;;1.20;;
15480;SDS011;7842;50.904;6.670;2023-05-16T15:02:29;2.50;;;1.10;;
15480;SDS011;7842;50.904;6.670;2023-05-16T15:04:55;3.97;;;1.23;;
15480;SDS011;7842;50.904;6.670;2023-05-16T15:07:21;3.00;;;1.40;;
15480;SDS011;7842;50.904;6.670;2023-05-16T15:09:46;3.40;;;1.33;;
15480;SDS011;7842;50.904;6.670;2023-05-16T15:12:12;2.60;;;1.30;;
15480;SDS011;7842;50.904;6.670;2023-05-16T15:14:39;3.80;;;1.10;;
15480;SDS011;7842;50.904;6.670;2023-05-16T15:17:06;3.05;;;1.45;;
15480;SDS011;7842;50.904;6.670;2023-05-16T15:19:32;3.10;;;1.38;;
15480;SDS011;7842;50.904;6.670;2023-05-16T15:21:58;4.40;;;1.42;;
15480;SDS011;7842;50.904;6.670;2023-05-16T15:24:24;3.53;;;1.23;;